sensor_id;sensor_type;location;lat;lon;timestamp;P1;durP1;ratioP1;P2;durP2;ratioP2
1715;SDS011;855;48.824;9.220;2024-03-22T00:02:06;24.70;;;8.47;;
1715;SDS011;855;48.824;9.220;2024-03-22T00:04:33;23.90;;;9.90;;
1715;SDS011;855;48.824;9.220;2024-03-22T00:06:59;22.90;;;10.07;;
1715;SDS011;855;48.824;9.220;2024-03-22T00:09:26;31.50;;;11.17;;
1715;SDS011;855;48.824;9.220;2024-03-22T00:11:52;23.17;;;8.57;;
1715;SDS011;855;48.824;9.220;2024-03-22T00:14:19;22.10;;;9.67;;
1715;SDS011;855;48.824;9.220;2024-03-22T00:16:46;22.97;;;9.47;;
1715;SDS011;855;48.824;9.220;2024-03-22T00:19:13;20.53;;;9.20;;
1715;SDS011;855;48.824;9.220;2024-03-22T00:21:39;19.80;;;7.13;;
1715;SDS011;855;48.824;9.220;2024-03-22T00:24:06;29.63;;;9.37;;
1715;SDS011;855;48.824;9.220;2024-03-22T00:26:31;22.77;;;9.50;;
1715;SDS011;855;48.824;9.220;2024-03-22T00:28:59;19.27;;;8.50;;
1715;SDS011;855;48.824;9.220;2024-03-22T00:31:25;21.07;;;8.57;;
1715;SDS011;855;48.824;9.220;2024-03-22T00:33:53;24.20;;;9.83;;
1715;SDS011;855;48.824;9.220;2024-03-22T00:36:19;23.20;;;10.27;;
1715;SDS011;855;48.824;9.220;2024-03-22T00:38:46;20.70;;;9.50;;
1715;SDS011;855;48.824;9.220;2024-03-22T00:41:12;25.10;;;9.33;;
1715;SDS011;855;48.824;9.220;2024-03-22T00:43:39;15.57;;;7.50;;
1715;SDS011;855;48.824;9.220;2024-03-22T00:46:05;24.70;;;9.17;;
1715;SDS011;855;48.824;9.220;2024-03-22T00:48:32;26.60;;;9.10;;
1715;SDS011;855;48.824;9.220;2024-03-22T00:51:01;20.50;;;9.00;;
1715;SDS011;855;48.824;9.220;2024-03-22T00:53:28;28.90;;;9.63;;
1715;SDS011;855;48.824;9.220;2024-03-22T00:55:54;22.13;;;9.40;;
1715;SDS011;855;48.824;9.220;2024-03-22T00:58:24;22.97;;;10.10;;
1715;SDS011;855;48.824;9.220;2024-03-22T01:00:50;30.07;;;10.30;;
1715;SDS011;855;48.824;9.220;2024-03-22T01:03:17;24.80;;;9.47;;
1715;SDS011;855;48.824;9.220;2024-03-22T01:05:43;26.30;;;10.17;;
1715;SDS011;855;48.824;9.220;2024-03-22T01:08:11;27.80;;;10.10;;
1715;SDS011;855;48.824;9.220;2024-03-22T01:10:37;36.00;;;9.87;;
1715;SDS011;855;48.824;9.220;2024-03-22T01:13:03;31.57;;;10.27;;
1715;SDS011;855;48.824;9.220;2024-03-22T01:15:29;25.07;;;10.60;;
1715;SDS011;855;48.824;9.220;2024-03-22T01:17:56;26.20;;;10.80;;
1715;SDS011;855;48.824;9.220;2024-03-22T01:20:22;37.33;;;11.80;;
1715;SDS011;855;48.824;9.220;2024-03-22T01:22:49;23.73;;;9.93;;
1715;SDS011;855;48.824;9.220;2024-03-22T01:25:16;26.23;;;10.40;;
1715;SDS011;855;48.824;9.220;2024-03-22T01:27:43;21.70;;;10.03;;
1715;SDS011;855;48.824;9.220;2024-03-22T01:30:09;23.00;;;10.60;;
1715;SDS011;855;48.824;9.220;2024-03-22T01:32:36;23.67;;;10.47;;
1715;SDS011;855;48.824;9.220;2024-03-22T01:35:02;26.03;;;11.03;;
1715;SDS011;855;48.824;9.220;2024-03-22T01:37:30;37.87;;;11.53;;
1715;SDS011;855;48.824;9.220;2024-03-22T01:39:55;23.83;;;9.40;;
1715;SDS011;855;48.824;9.220;2024-03-22T01:42:24;25.13;;;10.10;;
1715;SDS011;855;48.824;9.220;2024-03-22T01:44:50;24.97;;;10.57;;
1715;SDS011;855;48.824;9.220;2024-03-22T01:47:17;20.87;;;10.00;;
1715;SDS011;855;48.824;9.220;2024-03-22T01:49:42;21.03;;;10.00;;
1715;SDS011;855;48.824;9.220;2024-03-22T01:52:09;33.90;;;9.27;;
1715;SDS011;855;48.824;9.220;2024-03-22T01:54:35;36.57;;;12.20;;
1715;SDS011;855;48.824;9.220;2024-03-22T01:57:02;24.17;;;10.07;;
1715;SDS011;855;48.824;9.220;2024-03-22T01:59:30;19.80;;;9.00;;
1715;SDS011;855;48.824;9.220;2024-03-22T02:01:58;22.20;;;9.77;;
1715;SDS011;855;48.824;9.220;2024-03-22T02:04:24;27.73;;;11.07;;
1715;SDS011;855;48.824;9.220;2024-03-22T02:06:51;24.60;;;9.73;;
1715;SDS011;855;48.824;9.220;2024-03-22T02:09:17;18.87;;;8.17;;
1715;SDS011;855;48.824;9.220;2024-03-22T02:11:46;22.67;;;10.80;;
1715;SDS011;855;48.824;9.220;2024-03-22T02:14:12;23.27;;;9.23;;
1715;SDS011;855;48.824;9.220;2024-03-22T02:16:40;37.73;;;10.60;;
1715;SDS011;855;48.824;9.220;2024-03-22T02:19:06;19.23;;;8.77;;
1715;SDS011;855;48.824;9.220;2024-03-22T02:21:33;26.23;;;11.20;;
1715;SDS011;855;48.824;9.220;2024-03-22T02:24:01;31.57;;;10.00;;
1715;SDS011;855;48.824;9.220;2024-03-22T02:26:27;24.60;;;9.63;;
1715;SDS011;855;48.824;9.220;2024-03-22T02:28:53;24.37;;;8.60;;
1715;SDS011;855;48.824;9.220;2024-03-22T02:31:20;18.80;;;8.73;;
1715;SDS011;855;48.824;9.220;2024-03-22T02:33:46;28.73;;;9.27;;
1715;SDS011;855;48.824;9.220;2024-03-22T02:36:13;27.17;;;10.00;;
1715;SDS011;855;48.824;9.220;2024-03-22T02:38:38;27.57;;;9.20;;
1715;SDS011;855;48.824;9.220;2024-03-22T02:41:07;21.63;;;9.50;;
1715;SDS011;855;48.824;9.220;2024-03-22T02:43:32;30.03;;;10.90;;
1715;SDS011;855;48.824;9.220;2024-03-22T02:45:59;15.43;;;7.67;;
1715;SDS011;855;48.824;9.220;2024-03-22T02:48:25;30.90;;;10.40;;
1715;SDS011;855;48.824;9.220;2024-03-22T02:50:54;22.63;;;8.80;;
1715;SDS011;855;48.824;9.220;2024-03-22T02:53:21;15.80;;;8.23;;
1715;SDS011;855;48.824;9.220;2024-03-22T02:55:48;21.10;;;7.80;;
1715;SDS011;855;48.824;9.220;2024-03-22T02:58:16;38.90;;;9.37;;
1715;SDS011;855;48.824;9.220;2024-03-22T03:00:44;23.47;;;8.33;;
1715;SDS011;855;48.824;9.220;2024-03-22T03:03:10;30.73;;;8.13;;
1715;SDS011;855;48.824;9.220;2024-03-22T03:05:37;22.57;;;9.87;;
1715;SDS011;855;48.824;9.220;2024-03-22T03:08:03;17.60;;;8.90;;
1715;SDS011;855;48.824;9.220;2024-03-22T03:10:30;23.50;;;9.67;;
1715;SDS011;855;48.824;9.220;2024-03-22T03:12:56;21.50;;;8.93;;
1715;SDS011;855;48.824;9.220;2024-03-22T03:15:24;23.60;;;9.73;;
1715;SDS011;855;48.824;9.220;2024-03-22T03:17:50;21.30;;;9.33;;
1715;SDS011;855;48.824;9.220;2024-03-22T03:20:17;21.73;;;8.73;;
1715;SDS011;855;48.824;9.220;2024-03-22T03:22:43;19.73;;;8.17;;
1715;SDS011;855;48.824;9.220;2024-03-22T03:25:10;24.60;;;9.90;;
1715;SDS011;855;48.824;9.220;2024-03-22T03:27:36;22.57;;;8.87;;
1715;SDS011;855;48.824;9.220;2024-03-22T03:30:03;24.97;;;11.47;;
1715;SDS011;855;48.824;9.220;2024-03-22T03:32:31;29.10;;;11.17;;
1715;SDS011;855;48.824;9.220;2024-03-22T03:34:58;32.63;;;12.37;;
1715;SDS011;855;48.824;9.220;2024-03-22T03:37:24;32.73;;;11.67;;
1715;SDS011;855;48.824;9.220;2024-03-22T03:39:50;29.90;;;11.67;;
1715;SDS011;855;48.824;9.220;2024-03-22T03:42:16;27.80;;;11.27;;
1715;SDS011;855;48.824;9.220;2024-03-22T03:44:43;26.40;;;11.77;;
1715;SDS011;855;48.824;9.220;2024-03-22T03:47:09;25.20;;;10.67;;
1715;SDS011;855;48.824;9.220;2024-03-22T03:49:37;22.00;;;9.07;;
1715;SDS011;855;48.824;9.220;2024-03-22T03:52:03;35.63;;;10.40;;
1715;SDS011;855;48.824;9.220;2024-03-22T03:54:30;26.67;;;10.03;;
1715;SDS011;855;48.824;9.220;2024-03-22T03:56:56;32.83;;;11.47;;
1715;SDS011;855;48.824;9.220;2024-03-22T03:59:23;26.63;;;10.80;;
1715;SDS011;855;48.824;9.220;2024-03-22T04:01:48;31.70;;;11.43;;
1715;SDS011;855;48.824;9.220;2024-03-22T04:04:15;25.77;;;10.67;;
1715;SDS011;855;48.824;9.220;2024-03-22T04:06:43;30.93;;;11.47;;
1715;SDS011;855;48.824;9.220;2024-03-22T04:09:10;33.10;;;11.77;;
1715;SDS011;855;48.824;9.220;2024-03-22T04:11:36;21.30;;;10.60;;
1715;SDS011;855;48.824;9.220;2024-03-22T04:14:03;31.23;;;11.40;;
1715;SDS011;855;48.824;9.220;2024-03-22T04:16:30;31.43;;;13.57;;
1715;SDS011;855;48.824;9.220;2024-03-22T04:18:57;19.83;;;11.13;;
1715;SDS011;855;48.824;9.220;2024-03-22T04:21:22;30.97;;;11.73;;
1715;SDS011;855;48.824;9.220;2024-03-22T04:23:51;28.57;;;9.60;;
1715;SDS011;855;48.824;9.220;2024-03-22T04:26:17;22.63;;;9.77;;
1715;SDS011;855;48.824;9.220;2024-03-22T04:28:43;24.13;;;10.90;;
1715;SDS011;855;48.824;9.220;2024-03-22T04:31:09;21.80;;;10.07;;
1715;SDS011;855;48.824;9.220;2024-03-22T04:33:36;24.50;;;10.20;;
1715;SDS011;855;48.824;9.220;2024-03-22T04:36:03;27.47;;;12.20;;
1715;SDS011;855;48.824;9.220;2024-03-22T04:38:30;26.50;;;11.80;;
1715;SDS011;855;48.824;9.220;2024-03-22T04:40:58;36.93;;;11.50;;
1715;SDS011;855;48.824;9.220;2024-03-22T04:43:26;25.13;;;10.93;;
1715;SDS011;855;48.824;9.220;2024-03-22T04:45:54;23.27;;;10.20;;
1715;SDS011;855;48.824;9.220;2024-03-22T04:48:21;24.00;;;10.40;;
1715;SDS011;855;48.824;9.220;2024-03-22T04:50:47;26.80;;;9.83;;
1715;SDS011;855;48.824;9.220;2024-03-22T04:53:15;26.30;;;10.30;;
1715;SDS011;855;48.824;9.220;2024-03-22T04:55:42;23.50;;;9.90;;
1715;SDS011;855;48.824;9.220;2024-03-22T04:58:12;28.73;;;10.23;;
1715;SDS011;855;48.824;9.220;2024-03-22T05:00:38;22.23;;;9.23;;
1715;SDS011;855;48.824;9.220;2024-03-22T05:03:05;21.53;;;10.83;;
1715;SDS011;855;48.824;9.220;2024-03-22T05:05:31;22.47;;;9.60;;
1715;SDS011;855;48.824;9.220;2024-03-22T05:07:57;19.10;;;9.33;;
1715;SDS011;855;48.824;9.220;2024-03-22T05:10:23;27.30;;;10.00;;
1715;SDS011;855;48.824;9.220;2024-03-22T05:12:50;23.03;;;9.77;;
1715;SDS011;855;48.824;9.220;2024-03-22T05:15:17;24.53;;;10.40;;
1715;SDS011;855;48.824;9.220;2024-03-22T05:17:44;27.37;;;10.00;;
1715;SDS011;855;48.824;9.220;2024-03-22T05:20:10;23.43;;;9.80;;
1715;SDS011;855;48.824;9.220;2024-03-22T05:22:37;17.40;;;9.53;;
1715;SDS011;855;48.824;9.220;2024-03-22T05:25:03;25.40;;;8.90;;
1715;SDS011;855;48.824;9.220;2024-03-22T05:27:31;23.87;;;9.73;;
1715;SDS011;855;48.824;9.220;2024-03-22T05:29:57;24.93;;;8.53;;
1715;SDS011;855;48.824;9.220;2024-03-22T05:32:26;24.63;;;8.63;;
1715;SDS011;855;48.824;9.220;2024-03-22T05:34:52;22.80;;;9.03;;
1715;SDS011;855;48.824;9.220;2024-03-22T05:37:19;39.30;;;12.37;;
1715;SDS011;855;48.824;9.220;2024-03-22T05:39:45;32.07;;;14.47;;
1715;SDS011;855;48.824;9.220;2024-03-22T05:42:12;27.77;;;10.53;;
1715;SDS011;855;48.824;9.220;2024-03-22T05:44:38;24.97;;;9.57;;
1715;SDS011;855;48.824;9.220;2024-03-22T05:47:05;24.17;;;10.10;;
1715;SDS011;855;48.824;9.220;2024-03-22T05:49:32;21.00;;;9.70;;
1715;SDS011;855;48.824;9.220;2024-03-22T05:51:59;24.80;;;9.30;;
1715;SDS011;855;48.824;9.220;2024-03-22T05:54:24;26.53;;;8.57;;
1715;SDS011;855;48.824;9.220;2024-03-22T05:56:51;18.83;;;8.40;;
1715;SDS011;855;48.824;9.220;2024-03-22T05:59:17;18.63;;;8.37;;
1715;SDS011;855;48.824;9.220;2024-03-22T06:01:44;18.40;;;7.63;;
1715;SDS011;855;48.824;9.220;2024-03-22T06:04:10;18.07;;;8.87;;
1715;SDS011;855;48.824;9.220;2024-03-22T06:06:38;18.67;;;8.97;;
1715;SDS011;855;48.824;9.220;2024-03-22T06:09:04;20.17;;;8.67;;
1715;SDS011;855;48.824;9.220;2024-03-22T06:11:34;20.60;;;7.63;;
1715;SDS011;855;48.824;9.220;2024-03-22T06:14:00;19.33;;;8.13;;
1715;SDS011;855;48.824;9.220;2024-03-22T06:16:27;19.97;;;9.10;;
1715;SDS011;855;48.824;9.220;2024-03-22T06:18:52;25.50;;;9.80;;
1715;SDS011;855;48.824;9.220;2024-03-22T06:21:19;20.50;;;8.50;;
1715;SDS011;855;48.824;9.220;2024-03-22T06:23:49;19.13;;;8.33;;
1715;SDS011;855;48.824;9.220;2024-03-22T06:26:16;18.83;;;7.73;;
1715;SDS011;855;48.824;9.220;2024-03-22T06:28:42;19.40;;;9.10;;
1715;SDS011;855;48.824;9.220;2024-03-22T06:31:09;22.17;;;7.77;;
1715;SDS011;855;48.824;9.220;2024-03-22T06:33:35;20.47;;;8.67;;
1715;SDS011;855;48.824;9.220;2024-03-22T06:36:02;18.77;;;7.73;;
1715;SDS011;855;48.824;9.220;2024-03-22T06:38:28;19.97;;;10.47;;
1715;SDS011;855;48.824;9.220;2024-03-22T06:40:56;16.20;;;7.70;;
1715;SDS011;855;48.824;9.220;2024-03-22T06:43:24;34.53;;;9.03;;
1715;SDS011;855;48.824;9.220;2024-03-22T06:45:50;29.83;;;8.90;;
1715;SDS011;855;48.824;9.220;2024-03-22T06:48:16;18.70;;;8.93;;
1715;SDS011;855;48.824;9.220;2024-03-22T06:50:43;22.30;;;8.67;;
1715;SDS011;855;48.824;9.220;2024-03-22T06:53:09;16.37;;;8.23;;
1715;SDS011;855;48.824;9.220;2024-03-22T06:55:36;17.87;;;7.50;;
1715;SDS011;855;48.824;9.220;2024-03-22T06:58:03;19.60;;;9.00;;
1715;SDS011;855;48.824;9.220;2024-03-22T07:00:30;16.10;;;8.17;;
1715;SDS011;855;48.824;9.220;2024-03-22T07:02:56;26.43;;;8.80;;
1715;SDS011;855;48.824;9.220;2024-03-22T07:05:25;28.13;;;11.13;;
1715;SDS011;855;48.824;9.220;2024-03-22T07:07:51;20.90;;;10.03;;
1715;SDS011;855;48.824;9.220;2024-03-22T07:10:21;22.83;;;10.10;;
1715;SDS011;855;48.824;9.220;2024-03-22T07:12:47;28.53;;;12.50;;
1715;SDS011;855;48.824;9.220;2024-03-22T07:15:15;21.90;;;10.07;;
1715;SDS011;855;48.824;9.220;2024-03-22T07:17:41;23.63;;;10.20;;
1715;SDS011;855;48.824;9.220;2024-03-22T07:20:08;26.63;;;10.47;;
1715;SDS011;855;48.824;9.220;2024-03-22T07:22:35;23.30;;;9.07;;
1715;SDS011;855;48.824;9.220;2024-03-22T07:25:01;17.07;;;8.30;;
1715;SDS011;855;48.824;9.220;2024-03-22T07:27:27;21.17;;;10.87;;
1715;SDS011;855;48.824;9.220;2024-03-22T07:29:56;30.73;;;9.23;;
1715;SDS011;855;48.824;9.220;2024-03-22T07:32:23;36.23;;;8.00;;
1715;SDS011;855;48.824;9.220;2024-03-22T07:34:50;28.77;;;9.40;;
1715;SDS011;855;48.824;9.220;2024-03-22T07:37:16;22.40;;;10.07;;
1715;SDS011;855;48.824;9.220;2024-03-22T07:39:42;20.30;;;8.17;;
1715;SDS011;855;48.824;9.220;2024-03-22T07:42:08;29.87;;;10.23;;
1715;SDS011;855;48.824;9.220;2024-03-22T07:44:35;22.00;;;10.20;;
1715;SDS011;855;48.824;9.220;2024-03-22T07:47:01;18.80;;;8.43;;
1715;SDS011;855;48.824;9.220;2024-03-22T07:49:29;19.00;;;8.60;;
1715;SDS011;855;48.824;9.220;2024-03-22T07:51:56;20.20;;;8.20;;
1715;SDS011;855;48.824;9.220;2024-03-22T07:54:23;17.47;;;8.20;;
1715;SDS011;855;48.824;9.220;2024-03-22T07:56:49;22.33;;;8.40;;
1715;SDS011;855;48.824;9.220;2024-03-22T07:59:16;21.43;;;9.33;;
1715;SDS011;855;48.824;9.220;2024-03-22T08:01:42;18.33;;;8.13;;
1715;SDS011;855;48.824;9.220;2024-03-22T08:04:09;20.03;;;8.60;;
1715;SDS011;855;48.824;9.220;2024-03-22T08:06:36;18.80;;;8.43;;
1715;SDS011;855;48.824;9.220;2024-03-22T08:09:02;21.53;;;9.30;;
1715;SDS011;855;48.824;9.220;2024-03-22T08:11:28;18.70;;;8.07;;
1715;SDS011;855;48.824;9.220;2024-03-22T08:13:56;18.30;;;8.33;;
1715;SDS011;855;48.824;9.220;2024-03-22T08:16:27;16.20;;;7.17;;
1715;SDS011;855;48.824;9.220;2024-03-22T08:18:54;30.77;;;7.87;;
1715;SDS011;855;48.824;9.220;2024-03-22T08:21:19;24.03;;;8.70;;
1715;SDS011;855;48.824;9.220;2024-03-22T08:23:48;16.30;;;8.10;;
1715;SDS011;855;48.824;9.220;2024-03-22T08:26:13;20.00;;;7.63;;
1715;SDS011;855;48.824;9.220;2024-03-22T08:28:40;15.53;;;7.17;;
1715;SDS011;855;48.824;9.220;2024-03-22T08:31:06;17.67;;;9.40;;
1715;SDS011;855;48.824;9.220;2024-03-22T08:33:33;17.50;;;7.73;;
1715;SDS011;855;48.824;9.220;2024-03-22T08:35:59;19.53;;;9.13;;
1715;SDS011;855;48.824;9.220;2024-03-22T08:38:26;18.30;;;8.00;;
1715;SDS011;855;48.824;9.220;2024-03-22T08:40:53;19.70;;;7.97;;
1715;SDS011;855;48.824;9.220;2024-03-22T08:43:20;22.50;;;8.70;;
1715;SDS011;855;48.824;9.220;2024-03-22T08:45:50;25.60;;;10.03;;
1715;SDS011;855;48.824;9.220;2024-03-22T08:48:17;20.17;;;8.53;;
1715;SDS011;855;48.824;9.220;2024-03-22T08:50:43;19.40;;;7.87;;
1715;SDS011;855;48.824;9.220;2024-03-22T08:53:10;25.47;;;9.13;;
1715;SDS011;855;48.824;9.220;2024-03-22T08:55:36;15.57;;;7.77;;
1715;SDS011;855;48.824;9.220;2024-03-22T08:58:04;15.43;;;7.20;;
1715;SDS011;855;48.824;9.220;2024-03-22T09:00:30;13.97;;;7.00;;
1715;SDS011;855;48.824;9.220;2024-03-22T09:02:58;16.50;;;7.97;;
1715;SDS011;855;48.824;9.220;2024-03-22T09:05:24;18.23;;;7.17;;
1715;SDS011;855;48.824;9.220;2024-03-22T09:07:52;12.63;;;7.40;;
1715;SDS011;855;48.824;9.220;2024-03-22T09:10:20;12.67;;;6.73;;
1715;SDS011;855;48.824;9.220;2024-03-22T09:12:47;14.20;;;7.03;;
1715;SDS011;855;48.824;9.220;2024-03-22T09:15:14;13.50;;;6.73;;
1715;SDS011;855;48.824;9.220;2024-03-22T09:17:41;19.20;;;7.80;;
1715;SDS011;855;48.824;9.220;2024-03-22T09:20:08;9.90;;;6.47;;
1715;SDS011;855;48.824;9.220;2024-03-22T09:22:35;12.80;;;6.70;;
1715;SDS011;855;48.824;9.220;2024-03-22T09:25:01;18.43;;;7.20;;
1715;SDS011;855;48.824;9.220;2024-03-22T09:27:28;19.93;;;6.83;;
1715;SDS011;855;48.824;9.220;2024-03-22T09:29:54;16.60;;;5.90;;
1715;SDS011;855;48.824;9.220;2024-03-22T09:32:22;16.23;;;6.17;;
1715;SDS011;855;48.824;9.220;2024-03-22T09:34:48;9.40;;;4.90;;
1715;SDS011;855;48.824;9.220;2024-03-22T09:37:15;10.23;;;5.10;;
1715;SDS011;855;48.824;9.220;2024-03-22T09:39:42;11.47;;;5.97;;
1715;SDS011;855;48.824;9.220;2024-03-22T09:42:10;13.30;;;5.23;;
1715;SDS011;855;48.824;9.220;2024-03-22T09:44:41;14.60;;;5.83;;
1715;SDS011;855;48.824;9.220;2024-03-22T09:47:11;17.70;;;5.43;;
1715;SDS011;855;48.824;9.220;2024-03-22T09:49:40;11.03;;;5.37;;
1715;SDS011;855;48.824;9.220;2024-03-22T09:52:11;11.53;;;5.53;;
1715;SDS011;855;48.824;9.220;2024-03-22T09:54:38;20.10;;;7.30;;
1715;SDS011;855;48.824;9.220;2024-03-22T09:57:04;11.47;;;5.40;;
1715;SDS011;855;48.824;9.220;2024-03-22T09:59:32;11.73;;;5.63;;
1715;SDS011;855;48.824;9.220;2024-03-22T10:01:59;6.27;;;3.90;;
1715;SDS011;855;48.824;9.220;2024-03-22T10:04:26;10.33;;;4.90;;
1715;SDS011;855;48.824;9.220;2024-03-22T10:06:54;8.67;;;4.40;;
1715;SDS011;855;48.824;9.220;2024-03-22T10:09:27;11.63;;;5.00;;
1715;SDS011;855;48.824;9.220;2024-03-22T10:11:55;11.37;;;4.90;;
1715;SDS011;855;48.824;9.220;2024-03-22T10:14:20;24.23;;;5.93;;
1715;SDS011;855;48.824;9.220;2024-03-22T10:16:50;13.30;;;5.13;;
1715;SDS011;855;48.824;9.220;2024-03-22T10:19:18;10.93;;;4.53;;
1715;SDS011;855;48.824;9.220;2024-03-22T10:21:45;7.50;;;3.93;;
1715;SDS011;855;48.824;9.220;2024-03-22T10:24:12;12.10;;;4.47;;
1715;SDS011;855;48.824;9.220;2024-03-22T10:26:40;7.23;;;3.87;;
1715;SDS011;855;48.824;9.220;2024-03-22T10:29:06;8.27;;;4.60;;
1715;SDS011;855;48.824;9.220;2024-03-22T10:31:34;6.20;;;3.20;;
1715;SDS011;855;48.824;9.220;2024-03-22T10:34:00;7.10;;;3.73;;
1715;SDS011;855;48.824;9.220;2024-03-22T10:36:30;9.03;;;4.50;;
1715;SDS011;855;48.824;9.220;2024-03-22T10:38:57;4.20;;;3.07;;
1715;SDS011;855;48.824;9.220;2024-03-22T10:41:26;5.57;;;3.50;;
1715;SDS011;855;48.824;9.220;2024-03-22T10:43:52;4.37;;;2.47;;
1715;SDS011;855;48.824;9.220;2024-03-22T10:46:20;9.23;;;3.73;;
1715;SDS011;855;48.824;9.220;2024-03-22T10:48:46;4.57;;;2.60;;
1715;SDS011;855;48.824;9.220;2024-03-22T10:51:13;16.07;;;3.40;;
1715;SDS011;855;48.824;9.220;2024-03-22T10:53:40;7.00;;;2.73;;
1715;SDS011;855;48.824;9.220;2024-03-22T10:56:08;9.37;;;3.07;;
1715;SDS011;855;48.824;9.220;2024-03-22T10:58:39;6.17;;;2.53;;
1715;SDS011;855;48.824;9.220;2024-03-22T11:01:07;16.50;;;3.93;;
1715;SDS011;855;48.824;9.220;2024-03-22T11:03:47;6.27;;;3.60;;
1715;SDS011;855;48.824;9.220;2024-03-22T11:06:17;5.60;;;2.33;;
1715;SDS011;855;48.824;9.220;2024-03-22T11:08:43;9.77;;;3.13;;
1715;SDS011;855;48.824;9.220;2024-03-22T11:11:11;7.60;;;3.80;;
1715;SDS011;855;48.824;9.220;2024-03-22T11:13:39;10.83;;;2.77;;
1715;SDS011;855;48.824;9.220;2024-03-22T11:16:06;4.70;;;2.93;;
1715;SDS011;855;48.824;9.220;2024-03-22T11:18:35;7.47;;;3.20;;
1715;SDS011;855;48.824;9.220;2024-03-22T11:21:02;9.63;;;3.37;;
1715;SDS011;855;48.824;9.220;2024-03-22T11:23:29;13.23;;;3.30;;
1715;SDS011;855;48.824;9.220;2024-03-22T11:25:56;7.57;;;3.50;;
1715;SDS011;855;48.824;9.220;2024-03-22T11:28:22;4.13;;;2.40;;
1715;SDS011;855;48.824;9.220;2024-03-22T11:30:50;5.20;;;2.83;;
1715;SDS011;855;48.824;9.220;2024-03-22T11:33:16;7.63;;;3.00;;
1715;SDS011;855;48.824;9.220;2024-03-22T11:35:43;8.43;;;2.63;;
1715;SDS011;855;48.824;9.220;2024-03-22T11:38:10;7.47;;;2.83;;
1715;SDS011;855;48.824;9.220;2024-03-22T11:40:36;5.60;;;3.57;;
1715;SDS011;855;48.824;9.220;2024-03-22T11:43:03;8.60;;;3.43;;
1715;SDS011;855;48.824;9.220;2024-03-22T11:45:31;8.87;;;3.30;;
1715;SDS011;855;48.824;9.220;2024-03-22T11:48:03;5.90;;;3.63;;
1715;SDS011;855;48.824;9.220;2024-03-22T11:50:31;8.10;;;3.40;;
1715;SDS011;855;48.824;9.220;2024-03-22T11:52:57;22.83;;;3.70;;
1715;SDS011;855;48.824;9.220;2024-03-22T11:55:26;10.40;;;3.73;;
1715;SDS011;855;48.824;9.220;2024-03-22T11:57:52;5.63;;;3.97;;
1715;SDS011;855;48.824;9.220;2024-03-22T12:00:20;6.20;;;3.10;;
1715;SDS011;855;48.824;9.220;2024-03-22T12:02:47;5.80;;;2.90;;
1715;SDS011;855;48.824;9.220;2024-03-22T12:05:16;4.90;;;2.37;;
1715;SDS011;855;48.824;9.220;2024-03-22T12:07:43;4.60;;;2.60;;
1715;SDS011;855;48.824;9.220;2024-03-22T12:10:11;9.23;;;2.80;;
1715;SDS011;855;48.824;9.220;2024-03-22T12:12:36;11.50;;;3.10;;
1715;SDS011;855;48.824;9.220;2024-03-22T12:15:04;5.20;;;2.30;;
1715;SDS011;855;48.824;9.220;2024-03-22T12:17:31;4.73;;;2.53;;
1715;SDS011;855;48.824;9.220;2024-03-22T12:19:58;7.20;;;3.90;;
1715;SDS011;855;48.824;9.220;2024-03-22T12:22:25;5.93;;;2.70;;
1715;SDS011;855;48.824;9.220;2024-03-22T12:24:52;7.07;;;2.53;;
1715;SDS011;855;48.824;9.220;2024-03-22T12:27:18;3.73;;;1.90;;
1715;SDS011;855;48.824;9.220;2024-03-22T12:29:45;2.70;;;1.70;;
1715;SDS011;855;48.824;9.220;2024-03-22T12:32:11;2.93;;;1.97;;
1715;SDS011;855;48.824;9.220;2024-03-22T12:34:38;4.57;;;2.00;;
1715;SDS011;855;48.824;9.220;2024-03-22T12:37:04;10.20;;;2.70;;
1715;SDS011;855;48.824;9.220;2024-03-22T12:39:32;3.50;;;2.33;;
1715;SDS011;855;48.824;9.220;2024-03-22T12:41:58;5.30;;;2.03;;
1715;SDS011;855;48.824;9.220;2024-03-22T12:44:25;8.73;;;3.23;;
1715;SDS011;855;48.824;9.220;2024-03-22T12:46:51;4.50;;;2.00;;
1715;SDS011;855;48.824;9.220;2024-03-22T12:49:19;7.00;;;2.40;;
1715;SDS011;855;48.824;9.220;2024-03-22T12:51:45;4.50;;;2.33;;
1715;SDS011;855;48.824;9.220;2024-03-22T12:54:13;8.33;;;2.47;;
1715;SDS011;855;48.824;9.220;2024-03-22T12:56:41;5.23;;;2.50;;
1715;SDS011;855;48.824;9.220;2024-03-22T12:59:07;5.70;;;2.57;;
1715;SDS011;855;48.824;9.220;2024-03-22T13:01:33;5.20;;;2.50;;
1715;SDS011;855;48.824;9.220;2024-03-22T13:04:01;2.90;;;2.00;;
1715;SDS011;855;48.824;9.220;2024-03-22T13:06:27;4.03;;;2.37;;
1715;SDS011;855;48.824;9.220;2024-03-22T13:08:54;4.40;;;2.63;;
1715;SDS011;855;48.824;9.220;2024-03-22T13:11:20;4.60;;;2.83;;
1715;SDS011;855;48.824;9.220;2024-03-22T13:13:48;5.70;;;2.53;;
1715;SDS011;855;48.824;9.220;2024-03-22T13:16:14;8.37;;;3.10;;
1715;SDS011;855;48.824;9.220;2024-03-22T13:18:41;18.17;;;3.73;;
1715;SDS011;855;48.824;9.220;2024-03-22T13:21:07;10.43;;;3.30;;
1715;SDS011;855;48.824;9.220;2024-03-22T13:23:34;4.73;;;2.43;;
1715;SDS011;855;48.824;9.220;2024-03-22T13:26:02;4.00;;;2.70;;
1715;SDS011;855;48.824;9.220;2024-03-22T13:28:29;8.60;;;3.37;;
1715;SDS011;855;48.824;9.220;2024-03-22T13:31:00;6.23;;;2.90;;
1715;SDS011;855;48.824;9.220;2024-03-22T13:33:28;6.67;;;2.80;;
1715;SDS011;855;48.824;9.220;2024-03-22T13:35:55;3.10;;;1.90;;
1715;SDS011;855;48.824;9.220;2024-03-22T13:38:22;6.83;;;2.60;;
1715;SDS011;855;48.824;9.220;2024-03-22T13:40:54;4.33;;;2.30;;
1715;SDS011;855;48.824;9.220;2024-03-22T13:43:21;2.70;;;1.90;;
1715;SDS011;855;48.824;9.220;2024-03-22T13:45:48;10.20;;;2.30;;
1715;SDS011;855;48.824;9.220;2024-03-22T13:48:20;2.43;;;2.07;;
1715;SDS011;855;48.824;9.220;2024-03-22T13:50:49;7.60;;;3.50;;
1715;SDS011;855;48.824;9.220;2024-03-22T13:53:16;8.60;;;3.80;;
1715;SDS011;855;48.824;9.220;2024-03-22T13:55:42;7.20;;;2.73;;
1715;SDS011;855;48.824;9.220;2024-03-22T13:58:09;9.53;;;3.07;;
1715;SDS011;855;48.824;9.220;2024-03-22T14:00:35;5.80;;;2.60;;
1715;SDS011;855;48.824;9.220;2024-03-22T14:03:02;8.77;;;2.87;;
1715;SDS011;855;48.824;9.220;2024-03-22T14:05:29;6.10;;;3.70;;
1715;SDS011;855;48.824;9.220;2024-03-22T14:07:57;11.13;;;3.50;;
1715;SDS011;855;48.824;9.220;2024-03-22T14:10:23;14.57;;;5.60;;
1715;SDS011;855;48.824;9.220;2024-03-22T14:12:52;6.93;;;3.63;;
1715;SDS011;855;48.824;9.220;2024-03-22T14:15:18;6.03;;;3.67;;
1715;SDS011;855;48.824;9.220;2024-03-22T14:17:45;6.30;;;2.53;;
1715;SDS011;855;48.824;9.220;2024-03-22T14:20:11;6.33;;;3.30;;
1715;SDS011;855;48.824;9.220;2024-03-22T14:22:39;8.30;;;3.00;;
1715;SDS011;855;48.824;9.220;2024-03-22T14:25:06;11.70;;;2.17;;
1715;SDS011;855;48.824;9.220;2024-03-22T14:27:33;8.60;;;4.17;;
1715;SDS011;855;48.824;9.220;2024-03-22T14:29:59;4.93;;;3.00;;
1715;SDS011;855;48.824;9.220;2024-03-22T14:32:30;8.70;;;3.10;;
1715;SDS011;855;48.824;9.220;2024-03-22T14:34:56;5.33;;;2.77;;
1715;SDS011;855;48.824;9.220;2024-03-22T14:37:22;3.20;;;2.33;;
1715;SDS011;855;48.824;9.220;2024-03-22T14:39:50;3.33;;;2.00;;
1715;SDS011;855;48.824;9.220;2024-03-22T14:42:16;3.00;;;1.70;;
1715;SDS011;855;48.824;9.220;2024-03-22T14:44:42;5.43;;;1.80;;
1715;SDS011;855;48.824;9.220;2024-03-22T14:47:09;7.10;;;2.33;;
1715;SDS011;855;48.824;9.220;2024-03-22T14:49:35;7.60;;;1.47;;
1715;SDS011;855;48.824;9.220;2024-03-22T14:52:02;3.37;;;1.87;;
1715;SDS011;855;48.824;9.220;2024-03-22T14:54:28;1.93;;;1.00;;
1715;SDS011;855;48.824;9.220;2024-03-22T14:56:57;1.60;;;1.33;;
1715;SDS011;855;48.824;9.220;2024-03-22T14:59:23;4.50;;;1.40;;
1715;SDS011;855;48.824;9.220;2024-03-22T15:01:53;2.67;;;1.60;;
1715;SDS011;855;48.824;9.220;2024-03-22T15:04:19;3.27;;;1.33;;
1715;SDS011;855;48.824;9.220;2024-03-22T15:06:46;2.40;;;1.33;;
1715;SDS011;855;48.824;9.220;2024-03-22T15:09:15;4.63;;;1.30;;
1715;SDS011;855;48.824;9.220;2024-03-22T15:11:43;2.77;;;1.47;;
1715;SDS011;855;48.824;9.220;2024-03-22T15:14:10;3.40;;;1.50;;
1715;SDS011;855;48.824;9.220;2024-03-22T15:16:38;2.90;;;1.40;;